Time;durP1;ratioP1;P1;durP2;ratioP2;P2;SDS_P1;SDS_P2;PMS_P1;PMS_P2;Temp;Humidity;BMP_temperature;BMP_pressure;BME280_temperature;BME280_humidity;BME280_pressure;Samples;Min_cycle;Max_cycle;Signal;HPM_P1;HPM_P2
2022/07/27 00:02:39;;;;;;;4.93;1.40;;;22.30;70.60;;;;;;6989983;28;20463;-77
2022/07/27 00:06:01;;;;;;;4.18;1.30;;;22.30;68.70;;;;;;6990115;28;20462;-78
2022/07/27 00:09:24;;;;;;;4.15;1.30;;;22.30;70.50;;;;;;6981174;28;20454;-78
2022/07/27 00:12:46;;;;;;;3.97;1.30;;;22.20;68.80;;;;;;6987941;28;20815;-78
2022/07/27 00:16:09;;;;;;;3.60;1.50;;;22.10;70.40;;;;;;6981610;28;20443;-78
2022/07/27 00:19:31;;;;;;;4.77;1.23;;;22.10;69.60;;;;;;6981944;28;20448;-78
2022/07/27 00:22:53;;;;;;;3.95;1.30;;;21.90;69.80;;;;;;6988685;28;20478;-78
2022/07/27 00:26:15;;;;;;;4.10;1.50;;;21.90;68.90;;;;;;6987001;28;20512;-80
2022/07/27 00:29:38;;;;;;;3.90;1.33;;;21.90;69.50;;;;;;6983981;28;20471;-78
2022/07/27 00:33:02;;;;;;;5.22;1.50;;;21.80;71.80;;;;;;6989345;28;20427;-78
2022/07/27 00:36:24;;;;;;;4.07;1.30;;;21.80;70.10;;;;;;6986244;28;20454;-78
2022/07/27 00:39:46;;;;;;;3.53;1.30;;;21.90;71.70;;;;;;6980862;28;20480;-79
2022/07/27 00:43:08;;;;;;;4.57;1.30;;;21.90;71.20;;;;;;6979562;28;20459;-79
2022/07/27 00:46:31;;;;;;;3.15;1.40;;;21.80;73.30;;;;;;6988983;28;20444;-77
2022/07/27 00:49:54;;;;;;;3.08;1.30;;;21.70;73.50;;;;;;6989524;28;20932;-79
2022/07/27 00:53:16;;;;;;;4.85;1.35;;;21.70;71.90;;;;;;6987953;28;20435;-78
2022/07/27 00:56:39;;;;;;;4.33;1.50;;;21.60;72.80;;;;;;6986437;28;20438;-78
2022/07/27 01:00:01;;;;;;;4.93;1.30;;;21.50;73.20;;;;;;6987961;28;20443;-78
2022/07/27 01:03:23;;;;;;;3.50;1.40;;;21.50;73.50;;;;;;6992742;28;20456;-78
2022/07/27 01:06:46;;;;;;;3.05;1.20;;;21.50;73.70;;;;;;6989942;28;20467;-78
2022/07/27 01:10:09;;;;;;;4.70;1.50;;;21.40;73.70;;;;;;6991819;28;20432;-78
2022/07/27 01:13:31;;;;;;;3.90;1.50;;;21.40;72.70;;;;;;6986608;28;20436;-80
2022/07/27 01:16:53;;;;;;;3.80;1.47;;;21.30;74.00;;;;;;6988738;28;20439;-77
2022/07/27 01:20:15;;;;;;;4.45;1.40;;;21.30;74.30;;;;;;6990612;28;20439;-79
2022/07/27 01:23:39;;;;;;;3.63;1.45;;;21.30;75.10;;;;;;6977873;28;20452;-79
2022/07/27 01:27:03;;;;;;;4.50;1.50;;;21.30;75.80;;;;;;6994351;28;20431;-76
2022/07/27 01:30:29;;;;;;;4.88;2.70;;;21.40;75.90;;;;;;6999907;28;20867;-78
2022/07/27 01:33:51;;;;;;;13.73;9.10;;;21.50;75.70;;;;;;7004741;28;20424;-78
2022/07/27 01:37:13;;;;;;;5.80;2.72;;;21.50;76.20;;;;;;6993769;28;20461;-79
2022/07/27 01:40:38;;;;;;;3.88;1.50;;;21.50;75.40;;;;;;6974134;28;20925;-78
2022/07/27 01:44:00;;;;;;;3.60;1.50;;;21.40;75.80;;;;;;6993393;28;20450;-78
2022/07/27 01:47:22;;;;;;;4.45;1.52;;;21.30;75.60;;;;;;6991433;28;20954;-78
2022/07/27 01:50:44;;;;;;;3.42;1.60;;;21.30;75.40;;;;;;6990000;28;20940;-79
2022/07/27 01:54:07;;;;;;;4.32;1.60;;;21.30;76.20;;;;;;6991799;28;20459;-78
2022/07/27 01:57:30;;;;;;;4.35;1.63;;;21.40;75.40;;;;;;6991483;28;20441;-78
2022/07/27 02:00:52;;;;;;;4.03;1.60;;;21.30;74.80;;;;;;6992127;28;20920;-79
2022/07/27 02:04:17;;;;;;;3.83;1.50;;;21.30;75.70;;;;;;6982275;28;20463;-78
2022/07/27 02:07:39;;;;;;;4.22;1.50;;;21.30;76.10;;;;;;6991879;28;20427;-80
2022/07/27 02:14:43;;;;;;;4.53;1.70;;;21.00;77.00;;;;;;6974874;28;20427;-78
2022/07/27 02:18:05;;;;;;;3.60;1.50;;;20.90;75.50;;;;;;6990512;28;20460;-80
2022/07/27 02:21:27;;;;;;;4.68;1.60;;;20.90;75.20;;;;;;6991163;28;20429;-78
2022/07/27 02:24:49;;;;;;;3.97;1.65;;;20.70;76.40;;;;;;6985290;28;20427;-79
2022/07/27 02:28:11;;;;;;;3.80;1.60;;;20.60;77.20;;;;;;6983337;28;20441;-78
2022/07/27 02:31:35;;;;;;;3.65;1.58;;;20.50;77.40;;;;;;6949501;28;20476;-78
2022/07/27 02:34:57;;;;;;;4.20;1.70;;;20.50;77.60;;;;;;6953337;28;20579;-82
2022/07/27 02:38:19;;;;;;;3.22;1.50;;;20.50;78.40;;;;;;6961844;28;20919;-78
2022/07/27 02:41:41;;;;;;;3.22;1.50;;;20.60;78.70;;;;;;6957293;28;20429;-80
2022/07/27 02:45:05;;;;;;;4.80;1.70;;;20.70;77.70;;;;;;6963110;28;20802;-77
2022/07/27 02:48:29;;;;;;;4.30;1.52;;;20.70;77.50;;;;;;6958096;28;20479;-78
2022/07/27 02:51:51;;;;;;;4.30;1.63;;;20.80;78.10;;;;;;6963234;28;20452;-77
2022/07/27 02:55:13;;;;;;;4.07;1.40;;;20.70;78.10;;;;;;6961049;28;20429;-78
2022/07/27 02:58:36;;;;;;;5.75;1.95;;;20.70;78.80;;;;;;6960762;28;20436;-79
2022/07/27 03:01:58;;;;;;;4.70;1.80;;;20.70;78.70;;;;;;6963660;28;20452;-77
2022/07/27 03:05:21;;;;;;;4.80;1.73;;;20.70;79.50;;;;;;6964173;28;20460;-80
2022/07/27 03:08:43;;;;;;;3.78;1.80;;;20.80;78.90;;;;;;6963975;28;20437;-78
2022/07/27 03:12:06;;;;;;;3.40;1.60;;;20.80;78.40;;;;;;6966110;28;20429;-79
2022/07/27 03:15:29;;;;;;;4.47;1.63;;;20.80;79.00;;;;;;6953276;28;20454;-78
2022/07/27 03:18:51;;;;;;;4.47;1.70;;;20.80;78.50;;;;;;6962641;28;20433;-78
2022/07/27 03:22:14;;;;;;;5.20;1.70;;;20.80;78.90;;;;;;6960708;28;20464;-78
2022/07/27 03:25:37;;;;;;;4.60;1.60;;;20.80;78.00;;;;;;6962801;28;20432;-79
2022/07/27 03:28:59;;;;;;;3.28;1.52;;;20.80;77.90;;;;;;6969727;28;20442;-78
2022/07/27 03:32:21;;;;;;;4.57;1.80;;;20.80;77.90;;;;;;6983027;28;20921;-78
2022/07/27 03:35:43;;;;;;;4.27;1.70;;;20.80;78.40;;;;;;6984782;28;20489;-80
2022/07/27 03:39:07;;;;;;;5.88;1.95;;;20.80;78.30;;;;;;6988782;28;20860;-79
2022/07/27 03:42:29;;;;;;;4.10;1.58;;;20.80;78.60;;;;;;6978500;28;20591;-80
2022/07/27 03:45:51;;;;;;;5.15;1.70;;;20.70;80.40;;;;;;6989477;28;20959;-79
2022/07/27 03:49:13;;;;;;;4.57;1.80;;;20.60;80.80;;;;;;6983835;28;21014;-80
2022/07/27 03:52:35;;;;;;;5.57;1.83;;;20.60;80.80;;;;;;6970593;28;20794;-79
2022/07/27 03:55:59;;;;;;;3.85;1.60;;;20.70;80.70;;;;;;6970154;28;20455;-79
2022/07/27 03:59:21;;;;;;;5.38;1.60;;;20.70;80.70;;;;;;6969254;28;20474;-78
2022/07/27 04:02:43;;;;;;;4.13;1.60;;;20.70;81.10;;;;;;6992724;28;20436;-80
2022/07/27 04:06:05;;;;;;;4.30;1.85;;;20.60;81.70;;;;;;6996385;28;20438;-80
2022/07/27 04:09:27;;;;;;;4.80;1.93;;;20.50;82.40;;;;;;6995943;28;20427;-79
2022/07/27 04:12:51;;;;;;;4.40;1.80;;;20.40;83.20;;;;;;6995910;28;20428;-77
2022/07/27 04:16:13;;;;;;;4.05;1.80;;;20.20;83.90;;;;;;6995856;28;20431;-79
2022/07/27 04:19:35;;;;;;;4.40;1.80;;;20.00;84.50;;;;;;6996397;28;20439;-80
2022/07/27 04:22:57;;;;;;;4.78;1.70;;;19.80;84.20;;;;;;6996123;28;20423;-78
2022/07/27 04:26:19;;;;;;;4.28;1.90;;;19.80;84.60;;;;;;6995771;28;20882;-78
2022/07/27 04:29:43;;;;;;;3.73;1.90;;;19.70;84.60;;;;;;6995238;28;20434;-77
2022/07/27 04:33:05;;;;;;;5.65;1.88;;;19.60;85.90;;;;;;6968326;28;20440;-78
2022/07/27 04:36:27;;;;;;;4.18;1.90;;;19.60;85.40;;;;;;6982915;28;20438;-79
2022/07/27 04:39:49;;;;;;;5.05;1.80;;;19.60;85.50;;;;;;6995696;28;20948;-77
2022/07/27 04:43:11;;;;;;;4.80;1.85;;;19.60;85.60;;;;;;6996123;28;20470;-77
2022/07/27 04:46:34;;;;;;;4.13;1.75;;;19.60;85.80;;;;;;6977221;28;20430;-78
2022/07/27 04:49:57;;;;;;;4.07;1.90;;;19.60;85.80;;;;;;6968482;28;20472;-80
2022/07/27 04:53:19;;;;;;;4.77;2.00;;;19.50;86.30;;;;;;6968499;28;20428;-78
2022/07/27 04:56:41;;;;;;;5.18;1.80;;;19.70;86.50;;;;;;6967830;28;20575;-77
2022/07/27 05:00:06;;;;;;;4.85;2.00;;;19.80;86.50;;;;;;6982640;28;20436;-80
2022/07/27 05:03:30;;;;;;;6.55;2.30;;;19.90;86.70;;;;;;7002332;28;20434;-81
2022/07/27 05:06:52;;;;;;;6.35;2.17;;;20.00;86.60;;;;;;6998649;28;20415;-79
2022/07/27 05:10:14;;;;;;;4.90;2.10;;;20.00;86.30;;;;;;6996148;28;20777;-79
2022/07/27 05:13:39;;;;;;;4.30;2.08;;;20.10;86.30;;;;;;6995763;28;20462;-79
2022/07/27 05:17:01;;;;;;;4.90;2.20;;;20.10;86.30;;;;;;6994681;28;20463;-77
2022/07/27 05:20:25;;;;;;;4.07;2.10;;;20.10;85.80;;;;;;6993906;28;20790;-78
2022/07/27 05:23:47;;;;;;;6.15;2.30;;;20.00;86.20;;;;;;6996008;28;20479;-79
2022/07/27 05:27:09;;;;;;;7.25;2.50;;;20.00;86.30;;;;;;6994705;28;20436;-77
2022/07/27 05:30:31;;;;;;;5.05;2.20;;;20.00;85.60;;;;;;6993207;28;20439;-78
2022/07/27 05:33:53;;;;;;;6.70;2.28;;;19.90;86.80;;;;;;6995195;28;20435;-78
2022/07/27 05:37:17;;;;;;;6.33;2.70;;;19.90;87.60;;;;;;6994939;28;20435;-79
2022/07/27 05:40:39;;;;;;;4.95;2.40;;;20.00;88.00;;;;;;6996738;28;20439;-79
2022/07/27 05:44:01;;;;;;;4.43;2.70;;;20.00;88.40;;;;;;6999857;28;20903;-78
2022/07/27 05:47:23;;;;;;;6.15;2.75;;;20.00;88.10;;;;;;6999567;28;20910;-79
2022/07/27 05:50:45;;;;;;;6.67;3.07;;;20.10;88.00;;;;;;6999785;28;20427;-76
2022/07/27 05:54:09;;;;;;;9.20;2.70;;;20.10;88.40;;;;;;6998996;28;20432;-77
2022/07/27 05:57:31;;;;;;;8.13;2.90;;;20.10;88.40;;;;;;6944152;28;20502;-78
2022/07/27 06:00:53;;;;;;;7.40;2.88;;;20.10;88.50;;;;;;6944077;28;20451;-77
2022/07/27 06:04:15;;;;;;;8.05;2.92;;;20.20;88.20;;;;;;6944606;28;20514;-79
2022/07/27 06:11:18;;;;;;;6.38;3.28;;;20.40;87.80;;;;;;6966822;28;20421;-78
2022/07/27 06:14:40;;;;;;;7.78;3.50;;;20.40;87.40;;;;;;6972938;28;20866;-78
2022/07/27 06:18:03;;;;;;;7.38;3.40;;;20.40;88.00;;;;;;6972265;28;20923;-77
2022/07/27 06:21:27;;;;;;;6.95;3.50;;;20.40;88.70;;;;;;6971401;28;20458;-77
2022/07/27 06:24:49;;;;;;;8.98;3.50;;;20.40;88.00;;;;;;6972125;28;20961;-79
2022/07/27 06:28:12;;;;;;;8.23;3.78;;;20.40;88.00;;;;;;6971189;28;20428;-77
2022/07/27 06:31:36;;;;;;;7.25;3.90;;;20.50;87.60;;;;;;6970176;28;20409;-78
2022/07/27 06:34:59;;;;;;;7.15;3.90;;;20.50;87.60;;;;;;6970601;28;20426;-76
2022/07/27 06:38:23;;;;;;;5.70;3.80;;;20.50;87.60;;;;;;6970518;28;20433;-79
2022/07/27 06:41:45;;;;;;;6.57;3.88;;;20.50;88.20;;;;;;6971664;28;20437;-78
2022/07/27 06:45:10;;;;;;;7.13;3.88;;;20.50;87.90;;;;;;6970348;28;20436;-78
2022/07/27 06:48:32;;;;;;;7.85;4.15;;;20.60;88.00;;;;;;6970514;28;20440;-79
2022/07/27 06:51:54;;;;;;;7.57;3.73;;;20.70;87.90;;;;;;6970402;28;20537;-80
2022/07/27 06:55:16;;;;;;;7.70;3.90;;;20.80;87.50;;;;;;6983714;28;20439;-76
2022/07/27 06:58:38;;;;;;;7.87;4.40;;;20.90;87.50;;;;;;6997811;28;20450;-75
2022/07/27 07:02:02;;;;;;;6.93;3.92;;;21.00;86.60;;;;;;6942391;28;20474;-77
2022/07/27 07:05:24;;;;;;;8.20;3.70;;;21.00;87.20;;;;;;6957980;28;20433;-77
2022/07/27 07:08:46;;;;;;;8.38;3.92;;;21.10;87.80;;;;;;6969955;28;20476;-78
2022/07/27 07:12:08;;;;;;;7.72;3.70;;;21.20;86.70;;;;;;6969920;28;20429;-77
2022/07/27 07:15:30;;;;;;;7.15;3.88;;;21.10;86.40;;;;;;6971174;28;20425;-76
2022/07/27 07:18:54;;;;;;;7.00;4.10;;;21.30;85.20;;;;;;6972413;28;20436;-76
2022/07/27 07:22:16;;;;;;;6.45;3.72;;;21.40;86.00;;;;;;6969545;28;20795;-77
2022/07/27 07:25:39;;;;;;;6.45;3.70;;;21.50;85.50;;;;;;6986573;28;20517;-76
2022/07/27 07:29:01;;;;;;;7.72;3.92;;;21.60;84.70;;;;;;6996615;28;20427;-75
2022/07/27 07:32:24;;;;;;;6.68;3.60;;;21.50;84.20;;;;;;6996950;28;20785;-76
2022/07/27 07:35:47;;;;;;;7.88;3.92;;;21.60;84.40;;;;;;6997764;28;20577;-77
2022/07/27 07:39:09;;;;;;;6.07;3.70;;;21.70;83.90;;;;;;6997178;28;20916;-75
2022/07/27 07:42:31;;;;;;;6.63;3.57;;;21.70;84.20;;;;;;6997409;28;20805;-76
2022/07/27 07:45:54;;;;;;;6.55;3.50;;;21.70;83.60;;;;;;6998020;28;20427;-78
2022/07/27 07:49:16;;;;;;;7.60;3.90;;;21.80;83.50;;;;;;6991563;28;20934;-76
2022/07/27 07:52:39;;;;;;;7.65;3.70;;;21.90;82.00;;;;;;6969129;28;20425;-76
2022/07/27 07:56:02;;;;;;;6.13;3.65;;;21.80;83.20;;;;;;6988238;28;20423;-77
2022/07/27 07:59:24;;;;;;;7.10;3.80;;;21.90;83.60;;;;;;6997459;28;20423;-77
2022/07/27 08:02:49;;;;;;;6.47;3.90;;;22.00;82.50;;;;;;6998352;28;20428;-77
2022/07/27 08:06:12;;;;;;;6.75;3.88;;;21.90;83.40;;;;;;6996443;28;20466;-79
2022/07/27 08:09:35;;;;;;;6.22;3.60;;;22.00;82.70;;;;;;6996577;28;20572;-78
2022/07/27 08:12:58;;;;;;;7.47;3.42;;;22.20;83.10;;;;;;6996360;28;20509;-79
2022/07/27 08:16:20;;;;;;;5.90;3.15;;;22.30;82.10;;;;;;6997182;28;20534;-78
2022/07/27 08:19:42;;;;;;;6.63;3.30;;;22.50;82.20;;;;;;7003247;28;20912;-75
2022/07/27 08:23:04;;;;;;;5.88;3.53;;;22.50;82.40;;;;;;6998255;28;20435;-74
2022/07/27 08:26:28;;;;;;;5.80;3.10;;;22.40;81.70;;;;;;6988857;28;20433;-76
2022/07/27 08:29:50;;;;;;;6.47;3.40;;;22.60;80.80;;;;;;6965427;28;20425;-78
2022/07/27 08:33:12;;;;;;;6.47;3.28;;;22.60;80.30;;;;;;6967686;28;20825;-78
2022/07/27 08:36:34;;;;;;;5.90;3.50;;;22.60;80.00;;;;;;6967802;28;20436;-77
2022/07/27 08:39:57;;;;;;;6.95;3.60;;;22.50;81.00;;;;;;6968193;28;20441;-78
2022/07/27 08:43:24;;;;;;;6.43;3.78;;;22.50;80.10;;;;;;6967838;28;20775;-77
2022/07/27 08:46:46;;;;;;;7.22;3.67;;;22.60;80.20;;;;;;6967667;28;20428;-80
2022/07/27 08:50:22;;;;;;;6.28;3.60;;;22.50;79.80;;;;;;6967451;28;20452;-77
2022/07/27 08:53:44;;;;;;;6.40;3.42;;;22.70;79.70;;;;;;6973738;28;20434;-78
2022/07/27 08:57:08;;;;;;;7.00;3.35;;;22.80;79.80;;;;;;6974402;28;20425;-78
2022/07/27 09:00:33;;;;;;;6.43;3.60;;;22.70;80.60;;;;;;6967073;28;20442;-76
2022/07/27 09:03:55;;;;;;;6.60;3.67;;;23.10;78.90;;;;;;6967452;28;20429;-79
2022/07/27 09:07:30;;;;;;;6.53;3.75;;;23.00;79.60;;;;;;6968091;28;20424;-77
2022/07/27 09:10:54;;;;;;;6.70;3.67;;;23.20;79.30;;;;;;6967290;28;20910;-77
2022/07/27 09:14:16;;;;;;;6.53;3.77;;;23.40;79.40;;;;;;6970191;28;20508;-78
2022/07/27 09:17:43;;;;;;;6.38;4.10;;;23.20;79.30;;;;;;6973371;28;20425;-76
2022/07/27 09:21:15;;;;;;;8.70;4.47;;;23.40;78.00;;;;;;6979211;28;20643;-78
2022/07/27 09:24:37;;;;;;;6.00;3.60;;;23.30;77.70;;;;;;6973774;28;20567;-78
2022/07/27 09:27:59;;;;;;;7.57;3.72;;;23.30;79.60;;;;;;6973313;28;20429;-78
2022/07/27 09:31:21;;;;;;;7.93;4.13;;;23.40;79.60;;;;;;7005544;28;20780;-76
2022/07/27 09:34:45;;;;;;;14.13;8.20;;;23.50;79.50;;;;;;7004050;28;20427;-77
2022/07/27 09:38:18;;;;;;;7.85;4.07;;;23.30;79.50;;;;;;6998071;28;20428;-76
2022/07/27 09:41:43;;;;;;;7.47;4.28;;;23.30;79.00;;;;;;6988080;28;20452;-78
2022/07/27 09:45:27;;;;;;;7.43;4.18;;;23.40;77.70;;;;;;6971858;28;20453;-76
2022/07/27 09:48:49;;;;;;;6.25;3.72;;;23.40;78.00;;;;;;6974677;28;20460;-76
2022/07/27 09:52:23;;;;;;;6.88;4.28;;;23.50;78.30;;;;;;6999951;28;20434;-77
2022/07/27 09:55:56;;;;;;;6.53;3.67;;;23.70;76.90;;;;;;7000130;28;20437;-76
2022/07/27 09:59:19;;;;;;;7.50;4.03;;;23.80;77.20;;;;;;7000143;28;20516;-76
2022/07/27 10:02:42;;;;;;;12.50;7.78;;;23.80;75.90;;;;;;6997525;28;20991;-74
2022/07/27 10:06:04;;;;;;;6.30;3.90;;;23.90;76.00;;;;;;6999707;28;20428;-76
2022/07/27 10:09:29;;;;;;;6.90;4.10;;;24.00;75.70;;;;;;7001265;28;20432;-77
2022/07/27 10:12:52;;;;;;;5.80;3.77;;;24.10;75.60;;;;;;7001135;28;20435;-75
2022/07/27 10:16:18;;;;;;;7.15;4.00;;;24.10;75.80;;;;;;7002066;28;20429;-76
2022/07/27 10:19:49;;;;;;;5.95;3.70;;;24.10;74.80;;;;;;6998127;28;20431;-78
2022/07/27 10:23:26;;;;;;;7.63;3.72;;;24.20;75.00;;;;;;6985228;28;20528;-75
2022/07/27 10:26:50;;;;;;;6.65;4.10;;;24.20;74.30;;;;;;6971401;28;20906;-76
2022/07/27 10:30:15;;;;;;;6.38;4.10;;;24.30;74.10;;;;;;6971015;28;20434;-76
2022/07/27 10:33:46;;;;;;;6.13;3.75;;;24.20;74.90;;;;;;6971158;28;20427;-73
2022/07/27 10:37:10;;;;;;;6.75;3.60;;;24.30;75.20;;;;;;6978419;28;20424;-77
2022/07/27 10:40:35;;;;;;;7.73;3.90;;;24.50;75.80;;;;;;6999418;28;20774;-78
2022/07/27 10:44:34;;;;;;;5.97;3.38;;;24.60;73.80;;;;;;6998772;28;20423;-78
2022/07/27 10:47:56;;;;;;;6.18;3.47;;;24.60;73.20;;;;;;6938623;28;20526;-76
2022/07/27 10:51:35;;;;;;;7.80;3.72;;;24.30;73.50;;;;;;6943109;28;20916;-76
2022/07/27 10:54:58;;;;;;;5.88;3.45;;;24.60;72.90;;;;;;6943266;28;20427;-75
2022/07/27 10:58:46;;;;;;;5.43;3.20;;;24.60;71.30;;;;;;6943375;28;20509;-77
2022/07/27 11:02:12;;;;;;;6.78;3.80;;;24.80;71.80;;;;;;6971187;28;20441;-77
2022/07/27 11:05:34;;;;;;;8.10;3.72;;;24.60;71.60;;;;;;6970804;28;20432;-81
2022/07/27 11:08:59;;;;;;;5.05;3.20;;;24.60;72.50;;;;;;6971573;28;20940;-81
2022/07/27 11:12:28;;;;;;;6.32;3.47;;;24.60;71.80;;;;;;6971747;28;20456;-82
2022/07/27 11:15:58;;;;;;;5.90;3.95;;;24.70;70.60;;;;;;6970935;28;20432;-81
2022/07/27 11:19:22;;;;;;;5.97;3.53;;;24.50;73.30;;;;;;6970988;28;20429;-82
2022/07/27 11:22:44;;;;;;;7.78;3.25;;;24.30;74.30;;;;;;6995546;28;20455;-81
2022/07/27 11:26:06;;;;;;;6.97;3.20;;;24.40;74.50;;;;;;6972194;28;20425;-81
2022/07/27 11:29:33;;;;;;;6.15;3.10;;;24.50;74.00;;;;;;6996352;28;20454;-81
2022/07/27 11:32:56;;;;;;;6.75;3.10;;;24.60;72.40;;;;;;7024182;28;20415;-82
2022/07/27 11:36:20;;;;;;;5.00;2.75;;;24.70;71.40;;;;;;7030046;28;20431;-81
2022/07/27 11:39:42;;;;;;;4.87;2.80;;;24.60;69.90;;;;;;7028325;28;20434;-81
2022/07/27 11:43:04;;;;;;;5.97;2.97;;;24.60;71.00;;;;;;7007971;28;20939;-80
2022/07/27 11:46:29;;;;;;;6.50;3.00;;;24.60;69.80;;;;;;6999488;28;20423;-82
2022/07/27 11:49:51;;;;;;;5.38;2.40;;;24.80;69.20;;;;;;7029593;28;20427;-83
2022/07/27 11:53:20;;;;;;;4.60;2.10;;;24.80;68.10;;;;;;7030796;28;20427;-81
2022/07/27 11:56:45;;;;;;;4.72;2.28;;;24.90;65.10;;;;;;7027693;28;20445;-79
2022/07/27 12:00:10;;;;;;;5.50;2.15;;;24.90;64.70;;;;;;7017402;28;20431;-80
2022/07/27 12:03:32;;;;;;;5.07;1.98;;;25.20;64.80;;;;;;7012578;28;20440;-79
2022/07/27 12:07:00;;;;;;;6.07;2.13;;;25.30;61.30;;;;;;7014992;28;20430;-79
2022/07/27 12:10:23;;;;;;;4.05;1.98;;;25.30;63.20;;;;;;7002203;28;20419;-80
2022/07/27 12:13:45;;;;;;;4.82;2.10;;;25.60;63.30;;;;;;7003720;28;20435;-81
2022/07/27 12:17:34;;;;;;;4.72;2.25;;;25.70;62.80;;;;;;7004616;28;20419;-81
2022/07/27 12:20:56;;;;;;;5.13;2.40;;;25.70;64.20;;;;;;7001556;28;20432;-79
2022/07/27 12:24:41;;;;;;;4.65;2.47;;;25.90;64.50;;;;;;6982206;28;20424;-80
2022/07/27 12:28:07;;;;;;;5.60;2.60;;;26.00;64.60;;;;;;6990424;28;20440;-80
2022/07/27 12:31:29;;;;;;;5.20;2.47;;;25.90;65.20;;;;;;6993941;28;20423;-81
2022/07/27 12:34:51;;;;;;;4.95;2.70;;;25.90;65.70;;;;;;7001343;28;20943;-82
2022/07/27 12:38:14;;;;;;;4.63;2.20;;;25.70;66.00;;;;;;6990059;28;21223;-81
2022/07/27 12:41:36;;;;;;;4.03;2.20;;;25.70;65.40;;;;;;6965930;28;20961;-82
2022/07/27 12:45:13;;;;;;;4.10;2.00;;;25.60;64.60;;;;;;6985034;28;20504;-81
2022/07/27 12:48:40;;;;;;;4.75;1.90;;;25.70;62.70;;;;;;7005606;28;20442;-82
2022/07/27 12:52:06;;;;;;;6.03;1.90;;;25.80;60.90;;;;;;6998304;28;20459;-81
2022/07/27 12:55:28;;;;;;;4.38;1.90;;;25.70;59.70;;;;;;7020126;28;20423;-81
2022/07/27 12:59:01;;;;;;;4.07;1.70;;;25.90;61.10;;;;;;7018902;28;20545;-79
2022/07/27 13:02:24;;;;;;;3.97;2.05;;;26.00;61.90;;;;;;7001893;28;20446;-81
2022/07/27 13:05:47;;;;;;;4.27;2.10;;;26.10;61.70;;;;;;7004865;28;20431;-82
2022/07/27 13:09:09;;;;;;;4.40;1.90;;;25.90;62.00;;;;;;6997242;28;20431;-82
2022/07/27 13:12:32;;;;;;;4.00;1.80;;;25.90;62.30;;;;;;6997845;28;20438;-80
2022/07/27 13:15:54;;;;;;;4.35;2.00;;;25.80;61.80;;;;;;6998154;28;20869;-81
2022/07/27 13:19:17;;;;;;;5.18;2.10;;;25.90;62.50;;;;;;6994594;28;20435;-81
2022/07/27 13:22:41;;;;;;;4.30;1.95;;;25.90;61.30;;;;;;6996936;28;20647;-81
2022/07/27 13:26:03;;;;;;;4.07;1.90;;;26.10;61.00;;;;;;6996903;28;20450;-79
2022/07/27 13:29:26;;;;;;;3.38;1.80;;;26.10;60.30;;;;;;6997102;28;20917;-80
2022/07/27 13:32:48;;;;;;;3.88;1.90;;;26.20;60.70;;;;;;6995072;28;20423;-78
2022/07/27 13:36:11;;;;;;;4.57;1.90;;;26.30;59.50;;;;;;7001109;28;20427;-81
2022/07/27 13:39:33;;;;;;;5.03;2.00;;;26.20;60.80;;;;;;6977326;28;20862;-82
2022/07/27 13:42:55;;;;;;;4.75;1.95;;;26.20;61.20;;;;;;6969578;28;20518;-82
2022/07/27 13:46:17;;;;;;;3.95;1.85;;;26.10;60.40;;;;;;6970081;28;20429;-80
2022/07/27 13:49:39;;;;;;;4.20;1.85;;;25.90;60.30;;;;;;6968089;28;20434;-80
2022/07/27 13:53:03;;;;;;;4.80;1.70;;;26.00;60.00;;;;;;6980211;28;20443;-79
2022/07/27 13:56:28;;;;;;;6.15;2.00;;;26.40;60.50;;;;;;6978970;28;20444;-81
2022/07/27 13:59:50;;;;;;;4.30;1.70;;;26.40;58.80;;;;;;6972856;28;20423;-79
2022/07/27 14:03:12;;;;;;;4.22;1.80;;;26.40;58.90;;;;;;6982488;28;20440;-79
2022/07/27 14:06:35;;;;;;;5.38;1.80;;;26.80;59.90;;;;;;6961072;28;20491;-79
2022/07/27 14:13:38;;;;;;;4.88;1.77;;;27.20;57.50;;;;;;6988862;28;20431;-80
2022/07/27 14:17:00;;;;;;;3.70;1.70;;;27.20;56.50;;;;;;6983225;28;20473;-78
2022/07/27 14:20:23;;;;;;;3.83;1.70;;;27.40;57.20;;;;;;6979714;28;20441;-79
2022/07/27 14:23:45;;;;;;;4.05;1.60;;;27.60;57.00;;;;;;6982017;28;20500;-81
2022/07/27 14:27:10;;;;;;;4.25;1.63;;;27.50;56.20;;;;;;6968283;28;20480;-80
2022/07/27 14:30:32;;;;;;;4.15;1.52;;;27.60;56.10;;;;;;6988522;28;20496;-80
2022/07/27 14:33:54;;;;;;;4.90;1.80;;;28.00;55.80;;;;;;6982593;28;20464;-80
2022/07/27 14:37:16;;;;;;;3.50;1.60;;;28.10;54.90;;;;;;6966143;28;20461;-79
2022/07/27 14:40:39;;;;;;;4.75;1.65;;;28.10;54.60;;;;;;6989239;28;20432;-79
2022/07/27 14:44:03;;;;;;;4.88;1.40;;;28.20;55.30;;;;;;6983488;28;20452;-81
2022/07/27 14:47:25;;;;;;;5.32;1.58;;;28.60;54.70;;;;;;6979467;28;20441;-82
2022/07/27 14:50:47;;;;;;;4.68;1.50;;;28.40;53.90;;;;;;6984037;28;20488;-82
2022/07/27 14:54:09;;;;;;;3.55;1.50;;;28.30;53.70;;;;;;6977430;28;20434;-83
2022/07/27 14:57:31;;;;;;;4.10;1.60;;;28.50;54.00;;;;;;6983471;28;20907;-78
2022/07/27 15:00:55;;;;;;;6.03;1.50;;;28.40;53.80;;;;;;6976921;28;20433;-79
2022/07/27 15:04:17;;;;;;;4.47;1.50;;;28.40;54.30;;;;;;6969786;28;20932;-81
2022/07/27 15:07:41;;;;;;;3.83;1.38;;;28.30;53.80;;;;;;6977475;28;20433;-81
2022/07/27 15:11:03;;;;;;;3.90;1.40;;;28.40;54.90;;;;;;6974390;28;20513;-80
2022/07/27 15:14:26;;;;;;;3.57;1.50;;;28.60;53.60;;;;;;6987638;28;20433;-80
2022/07/27 15:17:49;;;;;;;5.30;1.42;;;28.70;53.80;;;;;;6980996;28;20805;-81
2022/07/27 15:21:11;;;;;;;5.15;1.42;;;28.80;53.20;;;;;;6980970;28;20917;-82
2022/07/27 15:24:33;;;;;;;4.13;1.48;;;28.70;53.70;;;;;;6981998;28;20432;-83
2022/07/27 15:27:55;;;;;;;5.22;1.60;;;28.80;53.80;;;;;;6971956;28;20468;-81
2022/07/27 15:31:18;;;;;;;3.42;1.50;;;28.90;52.80;;;;;;6969794;28;20433;-82
2022/07/27 15:34:42;;;;;;;4.80;1.60;;;29.00;52.20;;;;;;6970246;28;20460;-80
2022/07/27 15:38:04;;;;;;;4.72;1.48;;;28.80;52.90;;;;;;6966424;28;20918;-83
2022/07/27 15:41:26;;;;;;;5.30;1.50;;;29.10;52.30;;;;;;6987797;28;20445;-81
2022/07/27 15:44:48;;;;;;;4.05;1.30;;;29.10;52.50;;;;;;6989112;28;20429;-81
2022/07/27 15:48:12;;;;;;;3.83;1.60;;;29.20;52.30;;;;;;6981596;28;20427;-78
2022/07/27 15:51:36;;;;;;;3.58;1.40;;;29.10;52.30;;;;;;6977790;28;20492;-79
2022/07/27 15:54:58;;;;;;;4.20;1.40;;;29.30;52.30;;;;;;6972088;28;20489;-78
2022/07/27 15:58:22;;;;;;;3.00;1.30;;;29.30;52.00;;;;;;6976378;28;20517;-78
2022/07/27 16:01:44;;;;;;;4.97;1.30;;;29.30;51.90;;;;;;6980743;28;20767;-79
2022/07/27 16:05:07;;;;;;;4.73;1.60;;;29.30;52.10;;;;;;6982019;28;20440;-78
2022/07/27 16:08:30;;;;;;;4.43;1.30;;;29.40;51.80;;;;;;6972004;28;20444;-78
2022/07/27 16:11:53;;;;;;;4.38;1.35;;;29.50;51.80;;;;;;6970109;28;20992;-77
2022/07/27 16:15:15;;;;;;;4.20;1.40;;;29.50;51.30;;;;;;6962987;28;20500;-75
2022/07/27 16:18:51;;;;;;;4.65;1.40;;;29.50;50.80;;;;;;6961624;28;20553;-77
2022/07/27 16:22:14;;;;;;;4.05;1.40;;;29.80;51.40;;;;;;6964509;28;20514;-78
2022/07/27 16:25:37;;;;;;;4.28;1.40;;;30.00;50.80;;;;;;6965855;28;20444;-78
2022/07/27 16:29:01;;;;;;;3.17;1.30;;;29.90;50.20;;;;;;6960829;28;20433;-78
2022/07/27 16:32:23;;;;;;;3.33;1.30;;;29.80;50.50;;;;;;6972284;28;20447;-79
2022/07/27 16:35:45;;;;;;;3.77;1.43;;;29.70;50.20;;;;;;6964879;28;20947;-77
2022/07/27 16:39:07;;;;;;;4.17;1.50;;;29.50;50.50;;;;;;6956779;28;20438;-78
2022/07/27 16:42:31;;;;;;;4.22;1.35;;;29.60;50.70;;;;;;6963112;28;20948;-78
2022/07/27 16:45:55;;;;;;;4.30;1.60;;;29.70;50.60;;;;;;6975575;28;20427;-80
2022/07/27 16:49:18;;;;;;;2.93;1.20;;;29.80;50.40;;;;;;6964489;28;20498;-79
2022/07/27 16:52:40;;;;;;;5.53;1.52;;;29.70;50.60;;;;;;6959039;28;20534;-79
2022/07/27 16:56:02;;;;;;;4.03;1.50;;;29.70;50.50;;;;;;6961868;28;20429;-80
2022/07/27 16:59:25;;;;;;;3.42;1.30;;;29.70;50.10;;;;;;6967104;28;20468;-77
2022/07/27 17:02:47;;;;;;;4.97;1.40;;;29.70;50.70;;;;;;6964712;28;20484;-79
2022/07/27 17:06:09;;;;;;;3.88;1.30;;;29.60;50.70;;;;;;6963409;28;20440;-79
2022/07/27 17:09:31;;;;;;;4.57;1.40;;;29.70;50.40;;;;;;6962094;28;20433;-78
2022/07/27 17:12:53;;;;;;;4.03;1.30;;;29.90;50.70;;;;;;6960245;28;20433;-77
2022/07/27 17:16:18;;;;;;;4.63;1.42;;;29.90;50.60;;;;;;6961467;28;20436;-78
2022/07/27 17:19:40;;;;;;;3.92;1.30;;;29.90;50.50;;;;;;6961597;28;20491;-77
2022/07/27 17:23:02;;;;;;;4.10;1.73;;;29.70;50.80;;;;;;6966830;28;20471;-80
2022/07/27 17:26:24;;;;;;;7.85;4.28;;;29.50;50.70;;;;;;6976987;28;20495;-76
2022/07/27 17:29:47;;;;;;;12.38;6.53;;;29.70;51.30;;;;;;6980822;28;20468;-77
2022/07/27 17:33:10;;;;;;;9.30;5.13;;;29.50;50.80;;;;;;6981016;28;20471;-76
2022/07/27 17:36:32;;;;;;;3.90;1.60;;;29.60;51.00;;;;;;7012894;28;20437;-76
2022/07/27 17:39:54;;;;;;;4.28;1.40;;;29.60;50.40;;;;;;7004229;28;20519;-78
2022/07/27 17:43:16;;;;;;;4.18;1.30;;;29.50;50.90;;;;;;7007438;28;20428;-78
2022/07/27 17:46:38;;;;;;;3.60;1.20;;;29.40;51.20;;;;;;6988108;28;20435;-78
2022/07/27 17:50:03;;;;;;;3.63;1.30;;;29.50;51.20;;;;;;6996388;28;20435;-78